Time,TemperatureF,DewpointF,PressureIn,WindDirection,WindDirectionDegrees,WindSpeedMPH,WindSpeedGustMPH,Humidity,HourlyPrecipIn,Conditions,Clouds,dailyrainin,SoftwareType,DateUTC
2013-03-21 00:00:00,41.5,24.2,29.79,WNW,296,1.0,1.0,50,0.00,,,0.00,Wunderground v.1.15,2013-03-21 04:00:00,
2013-03-21 00:05:00,41.2,23.9,29.79,SSW,207,0.0,1.0,50,0.00,,,0.00,Wunderground v.1.15,2013-03-21 04:05:00,
2013-03-21 00:10:00,40.9,25.5,29.79,SW,214,0.0,0.0,54,0.00,,,0.00,Wunderground v.1.15,2013-03-21 04:10:00,
2013-03-21 00:15:00,40.8,25.4,29.78,WSW,243,0.0,0.0,54,0.00,,,0.00,Wunderground v.1.15,2013-03-21 04:15:00,
2013-03-21 00:20:00,40.6,26.1,29.78,WSW,243,0.0,0.0,56,0.00,,,0.00,Wunderground v.1.15,2013-03-21 04:20:00,
2013-03-21 00:25:00,40.3,26.7,29.78,WSW,243,0.0,0.0,58,0.00,,,0.00,Wunderground v.1.15,2013-03-21 04:25:00,
2013-03-21 00:30:00,39.9,25.5,29.78,WSW,243,0.0,0.0,56,0.00,,,0.00,Wunderground v.1.15,2013-03-21 04:30:00,
2013-03-21 00:35:00,39.9,28.7,29.78,WSW,252,0.0,0.0,64,0.00,,,0.00,Wunderground v.1.15,2013-03-21 04:35:00,
2013-03-21 00:45:00,39.5,27.9,29.78,North,4,0.0,2.0,63,0.00,,,0.00,Wunderground v.1.15,2013-03-21 04:45:00,
2013-03-21 00:50:00,39.7,26.1,29.77,NNE,12,1.0,1.0,58,0.00,,,0.00,Wunderground v.1.15,2013-03-21 04:50:00,
2013-03-21 00:55:00,39.7,27.3,29.77,North,11,1.0,1.0,61,0.00,,,0.00,Wunderground v.1.15,2013-03-21 04:55:00,
2013-03-21 01:05:00,40.1,26.5,29.78,NNW,331,1.0,2.0,58,0.00,,,0.00,Wunderground v.1.15,2013-03-21 05:05:00,
2013-03-21 01:10:00,39.8,27.0,29.77,NNW,332,1.0,1.0,60,0.00,,,0.00,Wunderground v.1.15,2013-03-21 05:10:00,
2013-03-21 01:15:00,39.3,28.1,29.76,NNW,333,0.0,1.0,64,0.00,,,0.00,Wunderground v.1.15,2013-03-21 05:15:00,
2013-03-21 01:20:00,38.8,27.3,29.76,NNE,20,1.0,2.0,63,0.00,,,0.00,Wunderground v.1.15,2013-03-21 05:20:00,
2013-03-21 01:30:00,39.2,23.9,29.76,NNW,346,3.0,3.0,54,0.00,,,0.00,Wunderground v.1.15,2013-03-21 05:30:00,
2013-03-21 01:35:00,39.1,23.4,29.75,North,5,4.0,4.0,53,0.00,,,0.00,Wunderground v.1.15,2013-03-21 05:35:00,
2013-03-21 01:40:00,38.9,24.1,29.76,NW,307,4.0,4.0,55,0.00,,,0.00,Wunderground v.1.15,2013-03-21 05:40:00,
2013-03-21 01:45:00,38.7,24.3,29.76,NW,321,4.0,4.0,56,0.00,,,0.00,Wunderground v.1.15,2013-03-21 05:45:00,
2013-03-21 01:50:00,38.5,25.4,29.76,North,359,5.0,8.0,59,0.00,,,0.00,Wunderground v.1.15,2013-03-21 05:50:00,
2013-03-21 01:55:00,38.2,25.1,29.76,NNE,32,6.0,8.0,59,0.00,,,0.00,Wunderground v.1.15,2013-03-21 05:55:00,
2013-03-21 02:00:00,37.9,25.2,29.75,NNE,15,7.0,7.0,60,0.00,,,0.00,Wunderground v.1.15,2013-03-21 06:00:00,
2013-03-21 02:10:00,37.4,27.1,29.75,NNW,335,8.0,8.0,66,0.00,,,0.00,Wunderground v.1.15,2013-03-21 06:10:00,
2013-03-21 02:15:00,37.3,27.0,29.75,NNE,26,7.0,8.0,66,0.00,,,0.00,Wunderground v.1.15,2013-03-21 06:15:00,
2013-03-21 02:20:00,37.0,27.1,29.76,NNE,15,6.0,8.0,67,0.00,,,0.00,Wunderground v.1.15,2013-03-21 06:20:00,
2013-03-21 02:30:00,36.5,26.9,29.76,North,6,7.0,7.0,68,0.00,,,0.00,Wunderground v.1.15,2013-03-21 06:30:00,
2013-03-21 02:35:00,36.4,27.5,29.76,NNW,330,6.0,7.0,70,0.00,,,0.00,Wunderground v.1.15,2013-03-21 06:35:00,
2013-03-21 02:45:00,36.1,27.3,29.76,NNE,15,5.0,7.0,70,0.00,,,0.00,Wunderground v.1.15,2013-03-21 06:45:00,
2013-03-21 02:50:00,35.9,27.1,29.76,NNE,23,5.0,5.0,70,0.00,,,0.00,Wunderground v.1.15,2013-03-21 06:50:00,
2013-03-21 03:00:00,35.6,27.1,29.76,NNE,18,4.0,4.0,71,0.00,,,0.00,Wunderground v.1.15,2013-03-21 07:00:00,
2013-03-21 03:05:00,35.5,27.4,29.75,NNE,23,4.0,4.0,72,0.00,,,0.00,Wunderground v.1.15,2013-03-21 07:05:00,
2013-03-21 03:15:00,35.3,27.2,29.76,NNE,15,4.0,7.0,72,0.00,,,0.00,Wunderground v.1.15,2013-03-21 07:15:00,
2013-03-21 03:20:00,35.3,27.2,29.76,NNE,18,5.0,5.0,72,0.00,,,0.00,Wunderground v.1.15,2013-03-21 07:20:00,
2013-03-21 03:25:00,35.2,27.4,29.75,NNW,330,5.0,5.0,73,0.00,,,0.00,Wunderground v.1.15,2013-03-21 07:25:00,
2013-03-21 03:30:00,35.2,27.7,29.75,NNW,346,5.0,5.0,74,0.00,,,0.00,Wunderground v.1.15,2013-03-21 07:30:00,
2013-03-21 03:35:00,35.2,27.7,29.75,NNE,20,5.0,8.0,74,0.00,,,0.00,Wunderground v.1.15,2013-03-21 07:35:00,
2013-03-21 03:40:00,35.1,28.0,29.75,NNW,330,6.0,6.0,75,0.00,,,0.00,Wunderground v.1.15,2013-03-21 07:40:00,
2013-03-21 03:50:00,34.9,27.8,29.75,NNW,333,6.0,6.0,75,0.00,,,0.00,Wunderground v.1.15,2013-03-21 07:50:00,
2013-03-21 03:55:00,34.7,27.6,29.74,NNE,19,5.0,6.0,75,0.00,,,0.00,Wunderground v.1.15,2013-03-21 07:55:00,
2013-03-21 04:00:00,34.4,27.3,29.74,NNE,23,5.0,8.0,75,0.00,,,0.00,Wunderground v.1.15,2013-03-21 08:00:00,
2013-03-21 04:05:00,34.3,27.2,29.74,NNW,339,5.0,8.0,75,0.00,,,0.00,Wunderground v.1.15,2013-03-21 08:05:00,
2013-03-21 04:10:00,34.4,27.6,29.74,NNW,338,5.0,5.0,76,0.00,,,0.00,Wunderground v.1.15,2013-03-21 08:10:00,
2013-03-21 04:15:00,34.4,27.9,29.74,NNW,337,5.0,5.0,77,0.00,,,0.00,Wunderground v.1.15,2013-03-21 08:15:00,
2013-03-21 04:20:00,34.4,27.9,29.74,North,352,5.0,7.0,77,0.00,,,0.00,Wunderground v.1.15,2013-03-21 08:20:00,
2013-03-21 04:30:00,34.0,27.2,29.74,NNE,32,6.0,6.0,76,0.00,,,0.00,Wunderground v.1.15,2013-03-21 08:30:00,
2013-03-21 04:35:00,33.9,27.1,29.74,North,350,6.0,6.0,76,0.00,,,0.00,Wunderground v.1.15,2013-03-21 08:35:00,
2013-03-21 04:40:00,33.8,27.4,29.73,NNE,18,5.0,8.0,77,0.00,,,0.00,Wunderground v.1.15,2013-03-21 08:40:00,
2013-03-21 04:50:00,33.5,27.1,29.73,North,6,4.0,6.0,77,0.00,,,0.00,Wunderground v.1.15,2013-03-21 08:50:00,
2013-03-21 04:55:00,33.4,27.0,29.73,North,6,5.0,6.0,77,0.00,,,0.00,Wunderground v.1.15,2013-03-21 08:55:00,
2013-03-21 05:05:00,33.3,27.2,29.73,North,353,5.0,5.0,78,0.00,,,0.00,Wunderground v.1.15,2013-03-21 09:05:00,
2013-03-21 05:10:00,33.2,27.1,29.73,North,4,5.0,7.0,78,0.00,,,0.00,Wunderground v.1.15,2013-03-21 09:10:00,
2013-03-21 05:15:00,33.3,27.2,29.73,NNE,20,5.0,7.0,78,0.00,,,0.00,Wunderground v.1.15,2013-03-21 09:15:00,
2013-03-21 05:20:00,33.2,27.1,29.74,NNE,20,5.0,5.0,78,0.00,,,0.00,Wunderground v.1.15,2013-03-21 09:20:00,
2013-03-21 05:25:00,33.2,27.1,29.73,NNE,20,4.0,6.0,78,0.00,,,0.00,Wunderground v.1.15,2013-03-21 09:25:00,
2013-03-21 05:30:00,33.3,27.2,29.73,NNE,30,4.0,4.0,78,0.00,,,0.00,Wunderground v.1.15,2013-03-21 09:30:00,
2013-03-21 05:40:00,33.4,27.3,29.73,NE,39,5.0,5.0,78,0.00,,,0.00,Wunderground v.1.15,2013-03-21 09:40:00,
2013-03-21 05:45:00,33.4,27.3,29.73,NNE,27,5.0,5.0,78,0.00,,,0.00,Wunderground v.1.15,2013-03-21 09:45:00,
2013-03-21 05:50:00,33.5,27.4,29.73,NNE,26,4.0,4.0,78,0.00,,,0.00,Wunderground v.1.15,2013-03-21 09:50:00,
2013-03-21 05:55:00,33.5,27.4,29.73,NE,41,5.0,9.0,78,0.00,,,0.00,Wunderground v.1.15,2013-03-21 09:55:00,
2013-03-21 06:00:00,33.6,27.5,29.73,NE,46,5.0,5.0,78,0.00,,,0.00,Wunderground v.1.15,2013-03-21 10:00:00,
2013-03-21 06:05:00,33.6,27.8,29.73,North,1,6.0,6.0,79,0.00,,,0.00,Wunderground v.1.15,2013-03-21 10:05:00,
2013-03-21 06:10:00,33.5,27.7,29.73,NNW,341,7.0,10.0,79,0.00,,,0.00,Wunderground v.1.15,2013-03-21 10:10:00,
2013-03-21 06:15:00,33.5,27.7,29.73,NNE,15,8.0,11.0,79,0.00,,,0.00,Wunderground v.1.15,2013-03-21 10:15:00,
2013-03-21 06:20:00,33.3,27.8,29.73,NNE,18,8.0,10.0,80,0.00,,,0.00,Wunderground v.1.15,2013-03-21 10:20:00,
2013-03-21 06:30:00,33.3,27.8,29.73,North,357,7.0,7.0,80,0.00,,,0.00,Wunderground v.1.15,2013-03-21 10:30:00,
2013-03-21 06:35:00,33.3,27.5,29.74,NNE,26,6.0,8.0,79,0.00,,,0.00,Wunderground v.1.15,2013-03-21 10:35:00,
2013-03-21 06:40:00,33.2,27.1,29.74,NNE,20,6.0,10.0,78,0.00,,,0.00,Wunderground v.1.15,2013-03-21 10:40:00,
2013-03-21 06:50:00,33.2,27.1,29.74,NNW,338,7.0,7.0,78,0.00,,,0.00,Wunderground v.1.15,2013-03-21 10:50:00,
2013-03-21 06:55:00,33.3,27.2,29.74,North,4,6.0,10.0,78,0.00,,,0.00,Wunderground v.1.15,2013-03-21 10:55:00,
2013-03-21 07:05:00,33.3,26.9,29.74,North,8,5.0,5.0,77,0.00,,,0.00,Wunderground v.1.15,2013-03-21 11:05:00,
2013-03-21 07:10:00,33.3,26.5,29.73,NE,38,5.0,8.0,76,0.00,,,0.00,Wunderground v.1.15,2013-03-21 11:10:00,
2013-03-21 07:15:00,33.2,26.1,29.74,NNE,20,5.0,8.0,75,0.00,,,0.00,Wunderground v.1.15,2013-03-21 11:15:00,
2013-03-21 07:25:00,33.3,25.9,29.74,NNE,30,6.0,6.0,74,0.00,,,0.00,Wunderground v.1.15,2013-03-21 11:25:00,
2013-03-21 07:30:00,33.4,26.3,29.74,NNE,31,5.0,5.0,75,0.00,,,0.00,Wunderground v.1.15,2013-03-21 11:30:00,
2013-03-21 07:35:00,33.5,26.1,29.74,NNW,347,5.0,5.0,74,0.00,,,0.00,Wunderground v.1.15,2013-03-21 11:35:00,
2013-03-21 07:45:00,33.6,26.2,29.74,NW,309,6.0,8.0,74,0.00,,,0.00,Wunderground v.1.15,2013-03-21 11:45:00,
2013-03-21 07:50:00,33.6,25.2,29.74,NW,316,6.0,7.0,71,0.00,,,0.00,Wunderground v.1.15,2013-03-21 11:50:00,
2013-03-21 08:00:00,33.6,24.9,29.74,NNE,16,7.0,11.0,70,0.00,,,0.00,Wunderground v.1.15,2013-03-21 12:00:00,
2013-03-21 08:05:00,33.6,24.9,29.74,NNW,346,7.0,11.0,70,0.00,,,0.00,Wunderground v.1.15,2013-03-21 12:05:00,
2013-03-21 08:10:00,33.7,25.0,29.74,NNW,330,7.0,7.0,70,0.00,,,0.00,Wunderground v.1.15,2013-03-21 12:10:00,
2013-03-21 08:15:00,33.8,25.4,29.74,NNW,340,7.0,8.0,71,0.00,,,0.00,Wunderground v.1.15,2013-03-21 12:15:00,
2013-03-21 08:20:00,33.7,24.6,29.74,North,354,7.0,9.0,69,0.00,,,0.00,Wunderground v.1.15,2013-03-21 12:20:00,
2013-03-21 08:30:00,33.5,23.4,29.73,NNE,13,9.0,9.0,66,0.00,,,0.00,Wunderground v.1.15,2013-03-21 12:30:00,
2013-03-21 08:35:00,33.5,23.7,29.73,NNE,32,9.0,9.0,67,0.00,,,0.00,Wunderground v.1.15,2013-03-21 12:35:00,
2013-03-21 08:45:00,33.5,23.0,29.73,North,359,9.0,14.0,65,0.00,,,0.00,Wunderground v.1.15,2013-03-21 12:45:00,
2013-03-21 08:50:00,33.5,23.4,29.73,North,6,9.0,11.0,66,0.00,,,0.00,Wunderground v.1.15,2013-03-21 12:50:00,
2013-03-21 08:55:00,33.5,23.0,29.73,NNW,340,9.0,11.0,65,0.00,,,0.00,Wunderground v.1.15,2013-03-21 12:55:00,
2013-03-21 09:05:00,33.5,23.0,29.73,NNE,12,9.0,10.0,65,0.00,,,0.00,Wunderground v.1.15,2013-03-21 13:05:00,
2013-03-21 09:10:00,33.5,23.0,29.73,NE,36,9.0,9.0,65,0.00,,,0.00,Wunderground v.1.15,2013-03-21 13:10:00,
2013-03-21 09:15:00,33.7,23.2,29.73,NNE,16,9.0,9.0,65,0.00,,,0.00,Wunderground v.1.15,2013-03-21 13:15:00,
2013-03-21 09:20:00,33.7,23.2,29.73,NNE,20,7.0,10.0,65,0.00,,,0.00,Wunderground v.1.15,2013-03-21 13:20:00,
2013-03-21 09:25:00,33.7,23.2,29.73,NW,321,7.0,10.0,65,0.00,,,0.00,Wunderground v.1.15,2013-03-21 13:25:00,
2013-03-21 09:30:00,33.6,22.7,29.73,NNE,16,8.0,8.0,64,0.00,,,0.00,Wunderground v.1.15,2013-03-21 13:30:00,
2013-03-21 09:35:00,33.3,22.1,29.73,NE,48,9.0,12.0,63,0.00,,,0.00,Wunderground v.1.15,2013-03-21 13:35:00,
2013-03-21 09:40:00,33.1,21.9,29.73,NE,37,11.0,11.0,63,0.00,,,0.00,Wunderground v.1.15,2013-03-21 13:40:00,
2013-03-21 09:55:00,33.3,22.8,29.72,North,8,9.0,9.0,65,0.00,,,0.00,Wunderground v.1.15,2013-03-21 13:55:00,
2013-03-21 10:00:00,33.1,22.6,29.72,NNW,345,10.0,10.0,65,0.00,,,0.00,Wunderground v.1.15,2013-03-21 14:00:00,
2013-03-21 10:05:00,33.0,23.9,29.72,North,351,10.0,10.0,69,0.00,,,0.00,Wunderground v.1.15,2013-03-21 14:05:00,
2013-03-21 10:10:00,32.6,24.2,29.72,NNE,15,8.0,10.0,71,0.00,,,0.00,Wunderground v.1.15,2013-03-21 14:10:00,
2013-03-21 10:15:00,32.5,24.8,29.72,NNE,30,7.0,10.0,73,0.00,,,0.00,Wunderground v.1.15,2013-03-21 14:15:00,
2013-03-21 10:20:00,32.6,23.9,29.72,NNW,335,7.0,7.0,70,0.00,,,0.00,Wunderground v.1.15,2013-03-21 14:20:00,
2013-03-21 10:25:00,32.7,24.0,29.72,NNE,18,8.0,10.0,70,0.00,,,0.00,Wunderground v.1.15,2013-03-21 14:25:00,
2013-03-21 10:35:00,32.6,23.9,29.72,NNE,27,8.0,10.0,70,0.00,,,0.00,Wunderground v.1.15,2013-03-21 14:35:00,
2013-03-21 10:40:00,32.5,23.8,29.73,NW,321,8.0,8.0,70,0.00,,,0.00,Wunderground v.1.15,2013-03-21 14:40:00,
2013-03-21 10:50:00,32.5,25.1,29.72,NNW,328,7.0,7.0,74,0.00,,,0.00,Wunderground v.1.15,2013-03-21 14:50:00,
2013-03-21 10:55:00,32.5,25.5,29.72,NNE,15,6.0,9.0,75,0.00,,,0.00,Wunderground v.1.15,2013-03-21 14:55:00,
2013-03-21 11:00:00,32.3,25.3,29.72,NNW,339,6.0,10.0,75,0.00,,,0.00,Wunderground v.1.15,2013-03-21 15:00:00,
2013-03-21 11:05:00,32.2,25.2,29.72,NE,41,7.0,10.0,75,0.00,,,0.00,Wunderground v.1.15,2013-03-21 15:05:00,
2013-03-21 11:10:00,32.1,24.4,29.72,NNE,15,8.0,8.0,73,0.00,,,0.00,Wunderground v.1.15,2013-03-21 15:10:00,
2013-03-21 11:20:00,31.9,24.2,29.72,NNE,23,7.0,8.0,73,0.00,,,0.00,Wunderground v.1.15,2013-03-21 15:20:00,
2013-03-21 11:30:00,32.0,24.3,29.71,NNE,25,8.0,8.0,73,0.00,,,0.00,Wunderground v.1.15,2013-03-21 15:30:00,
2013-03-21 11:35:00,31.9,24.9,29.71,NNW,333,9.0,9.0,75,0.00,,,0.00,Wunderground v.1.15,2013-03-21 15:35:00,
2013-03-21 11:40:00,31.8,25.1,29.71,NW,316,8.0,8.0,76,0.00,,,0.00,Wunderground v.1.15,2013-03-21 15:40:00,
2013-03-21 11:45:00,32.0,25.3,29.71,NNW,335,7.0,14.0,76,0.00,,,0.00,Wunderground v.1.15,2013-03-21 15:45:00,
2013-03-21 11:55:00,31.4,25.3,29.71,NNE,26,10.0,10.0,78,0.00,,,0.00,Wunderground v.1.15,2013-03-21 15:55:00,
2013-03-21 12:00:00,31.5,24.8,29.70,NNE,25,8.0,10.0,76,0.00,,,0.00,Wunderground v.1.15,2013-03-21 16:00:00,
2013-03-21 12:05:00,31.4,24.7,29.70,NE,39,7.0,11.0,76,0.00,,,0.00,Wunderground v.1.15,2013-03-21 16:05:00,
2013-03-21 12:10:00,31.4,24.7,29.70,NNW,328,7.0,7.0,76,0.00,,,0.00,Wunderground v.1.15,2013-03-21 16:10:00,
2013-03-21 12:20:00,31.3,24.0,29.69,NNE,15,8.0,13.0,74,0.00,,,0.00,Wunderground v.1.15,2013-03-21 16:20:00,
2013-03-21 12:30:00,32.0,24.3,29.69,NW,307,7.0,7.0,73,0.00,,,0.00,Wunderground v.1.15,2013-03-21 16:30:00,
2013-03-21 12:35:00,33.1,24.4,29.68,ENE,65,6.0,7.0,70,0.00,,,0.00,Wunderground v.1.15,2013-03-21 16:35:00,
2013-03-21 12:40:00,32.6,23.6,29.68,East,94,7.0,7.0,69,0.00,,,0.00,Wunderground v.1.15,2013-03-21 16:40:00,
2013-03-21 12:45:00,32.7,22.9,29.68,NNE,17,6.0,7.0,67,0.00,,,0.00,Wunderground v.1.15,2013-03-21 16:45:00,
2013-03-21 12:50:00,33.3,21.7,29.68,NNW,329,6.0,7.0,62,0.00,,,0.00,Wunderground v.1.15,2013-03-21 16:50:00,
2013-03-21 12:55:00,33.5,21.5,29.68,NNW,330,7.0,7.0,61,0.00,,,0.00,Wunderground v.1.15,2013-03-21 16:55:00,
2013-03-21 13:00:00,33.9,21.5,29.68,NNW,329,7.0,7.0,60,0.00,,,0.00,Wunderground v.1.15,2013-03-21 17:00:00,
2013-03-21 13:05:00,33.7,20.9,29.68,NNW,335,6.0,7.0,59,0.00,,,0.00,Wunderground v.1.15,2013-03-21 17:05:00,
2013-03-21 13:10:00,34.2,20.9,29.67,NNW,346,7.0,7.0,58,0.00,,,0.00,Wunderground v.1.15,2013-03-21 17:10:00,
2013-03-21 13:20:00,34.1,21.3,29.67,North,353,7.0,10.0,59,0.00,,,0.00,Wunderground v.1.15,2013-03-21 17:20:00,
2013-03-21 13:25:00,34.2,21.4,29.67,NW,309,7.0,10.0,59,0.00,,,0.00,Wunderground v.1.15,2013-03-21 17:25:00,
2013-03-21 13:30:00,33.6,22.0,29.67,NNW,335,9.0,10.0,62,0.00,,,0.00,Wunderground v.1.15,2013-03-21 17:30:00,
2013-03-21 13:40:00,32.1,25.1,29.68,NW,316,10.0,11.0,75,0.00,,,0.00,Wunderground v.1.15,2013-03-21 17:40:00,
2013-03-21 13:45:00,31.2,25.1,29.68,WNW,294,10.0,12.0,78,0.00,,,0.00,Wunderground v.1.15,2013-03-21 17:45:00,
2013-03-21 13:50:00,30.9,25.8,29.67,NW,307,11.0,11.0,81,0.00,,,0.00,Wunderground v.1.15,2013-03-21 17:50:00,
2013-03-21 13:55:00,30.6,25.5,29.67,NNW,333,10.0,11.0,81,0.00,,,0.00,Wunderground v.1.15,2013-03-21 17:55:00,
2013-03-21 14:00:00,30.4,25.6,29.67,NNW,328,9.0,9.0,82,0.00,,,0.00,Wunderground v.1.15,2013-03-21 18:00:00,
2013-03-21 14:10:00,30.0,25.8,29.67,NW,326,8.0,8.0,84,0.00,,,0.00,Wunderground v.1.15,2013-03-21 18:10:00,
2013-03-21 14:15:00,30.0,26.0,29.67,NW,321,7.0,8.0,85,0.00,,,0.00,Wunderground v.1.15,2013-03-21 18:15:00,
2013-03-21 14:25:00,30.2,26.5,29.67,North,349,5.0,8.0,86,0.00,,,0.00,Wunderground v.1.15,2013-03-21 18:25:00,
2013-03-21 14:30:00,30.0,26.3,29.67,NNW,335,5.0,5.0,86,0.00,,,0.00,Wunderground v.1.15,2013-03-21 18:30:00,
2013-03-21 14:35:00,29.7,26.3,29.67,NW,326,5.0,5.0,87,0.00,,,0.00,Wunderground v.1.15,2013-03-21 18:35:00,
2013-03-21 14:45:00,29.4,26.6,29.67,North,6,4.0,5.0,89,0.00,,,0.00,Wunderground v.1.15,2013-03-21 18:45:00,
2013-03-21 14:50:00,29.3,26.7,29.66,NNW,339,3.0,3.0,90,0.00,,,0.00,Wunderground v.1.15,2013-03-21 18:50:00,
2013-03-21 14:55:00,29.2,26.6,29.66,NNW,328,3.0,4.0,90,0.00,,,0.00,Wunderground v.1.15,2013-03-21 18:55:00,
2013-03-21 15:00:00,29.3,27.0,29.66,NW,321,4.0,4.0,91,0.00,,,0.00,Wunderground v.1.15,2013-03-21 19:00:00,
2013-03-21 15:05:00,29.2,26.9,29.66,NNW,330,4.0,4.0,91,0.00,,,0.00,Wunderground v.1.15,2013-03-21 19:05:00,
2013-03-21 15:10:00,29.1,26.8,29.65,NW,319,4.0,5.0,91,0.00,,,0.00,Wunderground v.1.15,2013-03-21 19:10:00,
2013-03-21 15:15:00,29.1,26.8,29.65,North,357,4.0,5.0,91,0.00,,,0.00,Wunderground v.1.15,2013-03-21 19:15:00,
2013-03-21 15:25:00,29.3,27.3,29.65,NW,322,3.0,4.0,92,0.00,,,0.00,Wunderground v.1.15,2013-03-21 19:25:00,
2013-03-21 15:30:00,29.4,27.1,29.65,NNW,335,3.0,3.0,91,0.00,,,0.00,Wunderground v.1.15,2013-03-21 19:30:00,
2013-03-21 15:35:00,29.6,27.6,29.65,NE,34,2.0,3.0,92,0.00,,,0.00,Wunderground v.1.15,2013-03-21 19:35:00,
2013-03-21 15:40:00,29.6,27.6,29.64,North,357,3.0,3.0,92,0.00,,,0.00,Wunderground v.1.15,2013-03-21 19:40:00,
2013-03-21 15:45:00,29.7,27.4,29.64,NNW,330,3.0,3.0,91,0.00,,,0.00,Wunderground v.1.15,2013-03-21 19:45:00,
2013-03-21 15:55:00,30.0,27.4,29.64,NE,37,3.0,3.0,90,0.00,,,0.00,Wunderground v.1.15,2013-03-21 19:55:00,
2013-03-21 16:00:00,30.1,27.3,29.63,ENE,77,2.0,3.0,89,0.00,,,0.00,Wunderground v.1.15,2013-03-21 20:00:00,
2013-03-21 16:05:00,30.4,27.3,29.63,ENE,70,3.0,3.0,88,0.00,,,0.00,Wunderground v.1.15,2013-03-21 20:05:00,
2013-03-21 16:15:00,30.5,26.8,29.63,NNE,33,2.0,3.0,86,0.00,,,0.00,Wunderground v.1.15,2013-03-21 20:15:00,
2013-03-21 16:20:00,30.5,26.5,29.63,ENE,78,2.0,2.0,85,0.00,,,0.00,Wunderground v.1.15,2013-03-21 20:20:00,
2013-03-21 16:30:00,31.0,27.3,29.63,ESE,120,2.0,3.0,86,0.00,,,0.00,Wunderground v.1.15,2013-03-21 20:30:00,
2013-03-21 16:35:00,30.9,26.9,29.63,SE,128,3.0,3.0,85,0.00,,,0.00,Wunderground v.1.15,2013-03-21 20:35:00,
2013-03-21 16:40:00,31.1,27.4,29.63,ENE,70,3.0,3.0,86,0.00,,,0.00,Wunderground v.1.15,2013-03-21 20:40:00,
2013-03-21 16:45:00,31.0,27.3,29.63,ESE,105,2.0,3.0,86,0.00,,,0.00,Wunderground v.1.15,2013-03-21 20:45:00,
2013-03-21 16:50:00,31.0,27.3,29.63,East,89,2.0,2.0,86,0.00,,,0.00,Wunderground v.1.15,2013-03-21 20:50:00,
2013-03-21 17:00:00,31.3,27.6,29.63,ESE,113,2.0,3.0,86,0.00,,,0.00,Wunderground v.1.15,2013-03-21 21:00:00,
2013-03-21 17:05:00,31.1,27.1,29.63,ESE,103,2.0,3.0,85,0.00,,,0.00,Wunderground v.1.15,2013-03-21 21:05:00,
2013-03-21 17:15:00,31.3,27.6,29.63,SSE,167,2.0,3.0,86,0.00,,,0.00,Wunderground v.1.15,2013-03-21 21:15:00,
2013-03-21 17:20:00,31.5,27.8,29.63,East,101,2.0,5.0,86,0.00,,,0.00,Wunderground v.1.15,2013-03-21 21:20:00,
2013-03-21 17:25:00,31.3,27.3,29.63,ESE,123,3.0,5.0,85,0.00,,,0.00,Wunderground v.1.15,2013-03-21 21:25:00,
2013-03-21 17:30:00,31.4,27.4,29.63,ENE,72,3.0,3.0,85,0.00,,,0.00,Wunderground v.1.15,2013-03-21 21:30:00,
2013-03-21 17:35:00,31.3,27.3,29.63,SE,135,2.0,3.0,85,0.00,,,0.00,Wunderground v.1.15,2013-03-21 21:35:00,
2013-03-21 17:40:00,31.4,27.4,29.63,East,93,2.0,2.0,85,0.00,,,0.00,Wunderground v.1.15,2013-03-21 21:40:00,
2013-03-21 17:45:00,31.6,27.6,29.63,ESE,108,2.0,4.0,85,0.00,,,0.00,Wunderground v.1.15,2013-03-21 21:45:00,
2013-03-21 17:55:00,31.7,27.7,29.63,SSE,165,2.0,2.0,85,0.00,,,0.00,Wunderground v.1.15,2013-03-21 21:55:00,
2013-03-21 18:00:00,31.9,27.6,29.63,SW,235,2.0,2.0,84,0.00,,,0.00,Wunderground v.1.15,2013-03-21 22:00:00,
2013-03-21 18:10:00,31.7,27.4,29.64,SE,143,2.0,2.0,84,0.00,,,0.00,Wunderground v.1.15,2013-03-21 22:10:00,
2013-03-21 18:15:00,31.8,27.5,29.64,SSE,160,1.0,2.0,84,0.00,,,0.00,Wunderground v.1.15,2013-03-21 22:15:00,
2013-03-21 18:20:00,32.0,27.7,29.64,SE,139,1.0,3.0,84,0.00,,,0.00,Wunderground v.1.15,2013-03-21 22:20:00,
2013-03-21 18:25:00,32.1,27.8,29.64,SE,136,1.0,4.0,84,0.00,,,0.00,Wunderground v.1.15,2013-03-21 22:25:00,
2013-03-21 18:30:00,32.0,27.7,29.64,SSE,148,2.0,2.0,84,0.00,,,0.00,Wunderground v.1.15,2013-03-21 22:30:00,
2013-03-21 18:35:00,32.0,27.7,29.64,SE,141,2.0,2.0,84,0.00,,,0.00,Wunderground v.1.15,2013-03-21 22:35:00,
2013-03-21 18:40:00,32.2,28.2,29.64,SE,145,2.0,2.0,85,0.00,,,0.00,Wunderground v.1.15,2013-03-21 22:40:00,
2013-03-21 18:50:00,32.2,27.9,29.64,SW,219,2.0,2.0,84,0.00,,,0.00,Wunderground v.1.15,2013-03-21 22:50:00,
2013-03-21 18:55:00,32.1,27.8,29.64,SSW,212,1.0,2.0,84,0.00,,,0.00,Wunderground v.1.15,2013-03-21 22:55:00,
2013-03-21 19:00:00,32.1,27.8,29.64,SSE,150,1.0,2.0,84,0.00,,,0.00,Wunderground v.1.15,2013-03-21 23:00:00,
2013-03-21 19:05:00,32.1,28.1,29.64,SW,218,1.0,2.0,85,0.00,,,0.00,Wunderground v.1.15,2013-03-21 23:05:00,
2013-03-21 19:10:00,32.1,28.1,29.65,SSE,157,1.0,1.0,85,0.00,,,0.00,Wunderground v.1.15,2013-03-21 23:10:00,
2013-03-21 19:20:00,32.1,28.1,29.65,SSE,155,0.0,0.0,85,0.00,,,0.00,Wunderground v.1.15,2013-03-21 23:20:00,
2013-03-21 19:25:00,32.1,28.1,29.65,SSE,156,0.0,0.0,85,0.00,,,0.00,Wunderground v.1.15,2013-03-21 23:25:00,
2013-03-21 19:30:00,32.2,27.9,29.65,WNW,288,0.0,0.0,84,0.00,,,0.00,Wunderground v.1.15,2013-03-21 23:30:00,
2013-03-21 19:40:00,32.0,27.7,29.66,WSW,241,0.0,0.0,84,0.00,,,0.00,Wunderground v.1.15,2013-03-21 23:40:00,
2013-03-21 19:45:00,31.9,27.3,29.66,SW,226,0.0,0.0,83,0.00,,,0.00,Wunderground v.1.15,2013-03-21 23:45:00,
2013-03-21 19:55:00,32.3,26.8,29.66,NW,304,1.0,6.0,80,0.00,,,0.00,Wunderground v.1.15,2013-03-21 23:55:00,
2013-03-21 20:00:00,33.2,24.5,29.66,WNW,300,3.0,5.0,70,0.00,,,0.00,Wunderground v.1.15,2013-03-22 00:00:00,
2013-03-21 20:05:00,34.0,22.3,29.66,West,280,5.0,5.0,62,0.00,,,0.00,Wunderground v.1.15,2013-03-22 00:05:00,
2013-03-21 20:10:00,34.5,19.5,29.66,West,277,6.0,6.0,54,0.00,,,0.00,Wunderground v.1.15,2013-03-22 00:10:00,
2013-03-21 20:20:00,34.8,18.5,29.67,WNW,302,6.0,7.0,51,0.00,,,0.00,Wunderground v.1.15,2013-03-22 00:20:00,
2013-03-21 20:25:00,34.7,18.9,29.67,NW,304,7.0,12.0,52,0.00,,,0.00,Wunderground v.1.15,2013-03-22 00:25:00,
2013-03-21 20:30:00,34.7,18.4,29.67,NW,319,7.0,7.0,51,0.00,,,0.00,Wunderground v.1.15,2013-03-22 00:30:00,
2013-03-21 20:35:00,34.6,17.4,29.67,NW,316,7.0,7.0,49,0.00,,,0.00,Wunderground v.1.15,2013-03-22 00:35:00,
2013-03-21 20:40:00,34.5,17.3,29.67,WNW,294,6.0,6.0,49,0.00,,,0.00,Wunderground v.1.15,2013-03-22 00:40:00,
2013-03-21 20:45:00,34.4,16.7,29.68,NW,308,8.0,8.0,48,0.00,,,0.00,Wunderground v.1.15,2013-03-22 00:45:00,
2013-03-21 20:50:00,34.3,16.6,29.68,NW,314,9.0,9.0,48,0.00,,,0.00,Wunderground v.1.15,2013-03-22 00:50:00,
2013-03-21 21:00:00,34.0,17.7,29.68,NW,325,8.0,8.0,51,0.00,,,0.00,Wunderground v.1.15,2013-03-22 01:00:00,
2013-03-21 21:05:00,33.9,18.1,29.68,WNW,288,8.0,8.0,52,0.00,,,0.00,Wunderground v.1.15,2013-03-22 01:05:00,
2013-03-21 21:10:00,33.7,17.9,29.69,NW,305,6.0,6.0,52,0.00,,,0.00,Wunderground v.1.15,2013-03-22 01:10:00,
2013-03-21 21:15:00,33.6,18.3,29.69,NW,323,7.0,11.0,53,0.00,,,0.00,Wunderground v.1.15,2013-03-22 01:15:00,
2013-03-21 21:25:00,33.5,19.5,29.69,WNW,294,8.0,9.0,56,0.00,,,0.00,Wunderground v.1.15,2013-03-22 01:25:00,
2013-03-21 21:30:00,33.3,19.7,29.69,NW,308,8.0,10.0,57,0.00,,,0.00,Wunderground v.1.15,2013-03-22 01:30:00,
2013-03-21 21:35:00,33.2,19.2,29.69,WNW,294,7.0,10.0,56,0.00,,,0.00,Wunderground v.1.15,2013-03-22 01:35:00,
2013-03-21 21:40:00,33.0,19.8,29.69,NW,308,6.0,7.0,58,0.00,,,0.00,Wunderground v.1.15,2013-03-22 01:40:00,
2013-03-21 21:45:00,32.9,19.7,29.69,WNW,288,7.0,9.0,58,0.00,,,0.00,Wunderground v.1.15,2013-03-22 01:45:00,
2013-03-21 21:50:00,32.8,19.6,29.70,NW,316,8.0,10.0,58,0.00,,,0.00,Wunderground v.1.15,2013-03-22 01:50:00,
2013-03-21 21:55:00,32.7,18.7,29.70,WNW,300,8.0,10.0,56,0.00,,,0.00,Wunderground v.1.15,2013-03-22 01:55:00,
2013-03-21 22:00:00,32.6,19.0,29.70,WNW,288,8.0,8.0,57,0.00,,,0.00,Wunderground v.1.15,2013-03-22 02:00:00,
2013-03-21 22:10:00,32.4,18.0,29.70,NNW,328,8.0,9.0,55,0.00,,,0.00,Wunderground v.1.15,2013-03-22 02:10:00,
2013-03-21 22:15:00,32.3,19.2,29.70,NW,316,7.0,9.0,58,0.00,,,0.00,Wunderground v.1.15,2013-03-22 02:15:00,
2013-03-21 22:20:00,32.1,18.2,29.70,NW,318,7.0,7.0,56,0.00,,,0.00,Wunderground v.1.15,2013-03-22 02:20:00,
2013-03-21 22:30:00,31.9,18.8,29.71,WNW,297,6.0,8.0,58,0.00,,,0.00,Wunderground v.1.15,2013-03-22 02:30:00,
2013-03-21 22:35:00,31.8,18.7,29.71,NW,305,6.0,11.0,58,0.00,,,0.00,Wunderground v.1.15,2013-03-22 02:35:00,
2013-03-21 22:40:00,31.7,18.6,29.71,NNW,328,7.0,8.0,58,0.00,,,0.00,Wunderground v.1.15,2013-03-22 02:40:00,
2013-03-21 22:45:00,31.6,17.7,29.71,WNW,294,8.0,8.0,56,0.00,,,0.00,Wunderground v.1.15,2013-03-22 02:45:00,
2013-03-21 22:50:00,31.6,18.9,29.71,NW,306,7.0,7.0,59,0.00,,,0.00,Wunderground v.1.15,2013-03-22 02:50:00,
2013-03-21 22:55:00,31.5,18.4,29.71,WNW,294,6.0,7.0,58,0.00,,,0.00,Wunderground v.1.15,2013-03-22 02:55:00,
2013-03-21 23:00:00,31.4,18.3,29.71,NW,316,7.0,7.0,58,0.00,,,0.00,Wunderground v.1.15,2013-03-22 03:00:00,
2013-03-21 23:05:00,31.3,18.2,29.72,WNW,302,7.0,7.0,58,0.00,,,0.00,Wunderground v.1.15,2013-03-22 03:05:00,
2013-03-21 23:15:00,31.2,18.1,29.72,WNW,294,7.0,7.0,58,0.00,,,0.00,Wunderground v.1.15,2013-03-22 03:15:00,
2013-03-21 23:20:00,31.1,18.0,29.72,NW,322,7.0,7.0,58,0.00,,,0.00,Wunderground v.1.15,2013-03-22 03:20:00,
2013-03-21 23:25:00,31.0,18.7,29.72,NW,321,7.0,7.0,60,0.00,,,0.00,Wunderground v.1.15,2013-03-22 03:25:00,
2013-03-21 23:30:00,30.9,17.8,29.72,NW,319,6.0,9.0,58,0.00,,,0.00,Wunderground v.1.15,2013-03-22 03:30:00,
2013-03-21 23:35:00,30.9,18.2,29.73,NW,314,7.0,9.0,59,0.00,,,0.00,Wunderground v.1.15,2013-03-22 03:35:00,
2013-03-21 23:40:00,30.8,18.1,29.73,NW,305,7.0,8.0,59,0.00,,,0.00,Wunderground v.1.15,2013-03-22 03:40:00,
2013-03-21 23:45:00,30.8,18.5,29.73,NW,319,6.0,9.0,60,0.00,,,0.00,Wunderground v.1.15,2013-03-22 03:45:00,
2013-03-21 23:50:00,30.7,18.8,29.73,WNW,302,6.0,6.0,61,0.00,,,0.00,Wunderground v.1.15,2013-03-22 03:50:00,
2013-03-21 23:55:00,30.7,18.4,29.73,NW,307,6.0,6.0,60,0.00,,,0.00,Wunderground v.1.15,2013-03-22 03:55:00,